Time;durP1;ratioP1;P1;durP2;ratioP2;P2;SDS_P1;SDS_P2;PMS_P1;PMS_P2;Temp;Humidity;BMP_temperature;BMP_pressure;BME280_temperature;BME280_humidity;BME280_pressure;Samples;Min_cycle;Max_cycle;Signal;HPM_P1;HPM_P2
2021/11/26 00:00:45;;;;;;;5.80;2.00;;;4.70;99.90;;;;;;5133262;27;20193;-68
2021/11/26 00:03:16;;;;;;;3.00;1.63;;;4.70;99.90;;;;;;5141121;27;20189;-69
2021/11/26 00:05:47;;;;;;;7.07;1.90;;;4.70;99.90;;;;;;5147295;27;20249;-68
2021/11/26 00:08:16;;;;;;;2.40;2.07;;;4.70;99.90;;;;;;5144431;27;20198;-68
2021/11/26 00:10:45;;;;;;;3.03;1.60;;;4.70;99.90;;;;;;5146846;27;20224;-69
2021/11/26 00:13:13;;;;;;;2.33;1.87;;;4.70;99.90;;;;;;5118901;27;20205;-68
2021/11/26 00:15:44;;;;;;;1.60;1.50;;;4.70;99.90;;;;;;5142731;27;20197;-68
2021/11/26 00:18:18;;;;;;;3.93;1.70;;;4.70;99.90;;;;;;5141267;27;20258;-69
2021/11/26 00:20:48;;;;;;;4.87;1.77;;;4.70;99.90;;;;;;5140209;27;20189;-68
2021/11/26 00:23:17;;;;;;;3.73;1.67;;;4.70;99.90;;;;;;5132370;27;20189;-68
2021/11/26 00:25:45;;;;;;;2.23;1.73;;;4.70;99.90;;;;;;5135994;27;20197;-69
2021/11/26 00:28:14;;;;;;;3.00;1.90;;;4.70;99.90;;;;;;5148840;27;20189;-68
2021/11/26 00:30:45;;;;;;;3.40;2.10;;;4.70;99.90;;;;;;5145359;27;20912;-68
2021/11/26 00:33:14;;;;;;;2.97;2.33;;;4.70;99.90;;;;;;5140857;27;20225;-68
2021/11/26 00:35:45;;;;;;;6.70;2.40;;;4.70;99.90;;;;;;5146615;27;20182;-68
2021/11/26 00:38:14;;;;;;;2.10;2.00;;;4.70;99.90;;;;;;5140424;27;20209;-68
2021/11/26 00:40:43;;;;;;;5.83;2.50;;;4.70;99.90;;;;;;5125759;27;20666;-69
2021/11/26 00:43:12;;;;;;;2.73;2.53;;;4.70;99.90;;;;;;5139387;27;20253;-68
2021/11/26 00:45:40;;;;;;;8.40;3.60;;;4.60;99.90;;;;;;5149651;27;20217;-69
2021/11/26 00:48:12;;;;;;;4.13;3.20;;;4.60;99.90;;;;;;5123258;27;20591;-68
2021/11/26 00:50:40;;;;;;;5.33;2.70;;;4.60;99.90;;;;;;5147649;27;20197;-68
2021/11/26 00:53:09;;;;;;;3.83;2.60;;;4.50;99.90;;;;;;5139873;27;20197;-68
2021/11/26 00:55:37;;;;;;;5.53;2.87;;;4.50;99.90;;;;;;5139851;27;20197;-68
2021/11/26 00:58:06;;;;;;;7.57;3.03;;;4.50;99.90;;;;;;5160490;27;20197;-68
2021/11/26 01:00:35;;;;;;;4.30;2.70;;;4.50;99.90;;;;;;5129700;27;20227;-68
2021/11/26 01:03:06;;;;;;;4.03;2.70;;;4.50;99.90;;;;;;5137019;27;20197;-68
2021/11/26 01:05:35;;;;;;;4.40;2.63;;;4.50;99.90;;;;;;5125291;27;20396;-69
2021/11/26 01:08:05;;;;;;;3.20;2.60;;;4.50;99.90;;;;;;5140120;27;20205;-68
2021/11/26 01:10:34;;;;;;;7.03;3.30;;;4.50;99.90;;;;;;5120702;27;20288;-68
2021/11/26 01:13:03;;;;;;;8.73;2.80;;;4.60;99.90;;;;;;5148558;27;20347;-68
2021/11/26 01:15:34;;;;;;;8.47;2.80;;;4.60;99.90;;;;;;5121108;27;20722;-68
2021/11/26 01:18:02;;;;;;;3.83;2.87;;;4.60;99.90;;;;;;5135907;27;20617;-67
2021/11/26 01:20:32;;;;;;;4.40;3.30;;;4.60;99.90;;;;;;5142748;27;21305;-68
2021/11/26 01:23:03;;;;;;;8.47;4.07;;;4.60;99.90;;;;;;5140453;27;20229;-68
2021/11/26 01:25:32;;;;;;;8.73;4.03;;;4.60;99.90;;;;;;5138662;27;20288;-68
2021/11/26 01:28:00;;;;;;;6.60;4.70;;;4.60;99.90;;;;;;5140653;27;20628;-68
2021/11/26 01:30:33;;;;;;;9.77;5.07;;;4.50;99.90;;;;;;5141961;27;20210;-68
2021/11/26 01:33:03;;;;;;;10.73;5.07;;;4.50;99.90;;;;;;5139824;27;20756;-68
2021/11/26 01:35:33;;;;;;;12.93;5.53;;;4.50;99.90;;;;;;5140097;27;20205;-69
2021/11/26 01:38:04;;;;;;;11.27;5.80;;;4.50;99.90;;;;;;5134177;27;20796;-68
2021/11/26 01:40:34;;;;;;;23.00;7.00;;;4.50;99.90;;;;;;5118032;27;20797;-68
2021/11/26 01:43:06;;;;;;;18.83;6.70;;;4.50;99.90;;;;;;5151851;27;20186;-68
2021/11/26 01:45:41;;;;;;;15.97;6.63;;;4.40;99.90;;;;;;5153502;27;20233;-68
2021/11/26 01:48:12;;;;;;;14.47;6.93;;;4.50;99.90;;;;;;5139551;27;20190;-68
2021/11/26 01:50:41;;;;;;;10.60;6.20;;;4.40;99.90;;;;;;5139144;27;20251;-68
2021/11/26 01:53:11;;;;;;;16.67;7.17;;;4.50;99.90;;;;;;5121579;27;20229;-68
2021/11/26 01:55:40;;;;;;;24.40;7.37;;;4.40;99.90;;;;;;5139763;27;20270;-68
2021/11/26 01:58:10;;;;;;;18.67;7.00;;;4.40;99.90;;;;;;5136094;27;20226;-68
2021/11/26 02:00:41;;;;;;;18.80;6.73;;;4.40;99.90;;;;;;5130594;27;20222;-68
2021/11/26 02:03:10;;;;;;;16.17;6.90;;;4.40;99.90;;;;;;5136274;27;20193;-68
2021/11/26 02:05:39;;;;;;;17.23;6.90;;;4.40;99.90;;;;;;5141564;27;20286;-68
2021/11/26 02:08:08;;;;;;;20.60;6.63;;;4.40;99.90;;;;;;5121740;27;20651;-68
2021/11/26 02:10:39;;;;;;;13.30;5.73;;;4.40;99.90;;;;;;5150423;27;20676;-68
2021/11/26 02:13:07;;;;;;;20.70;6.23;;;4.40;99.90;;;;;;5133812;27;20691;-69
2021/11/26 02:15:40;;;;;;;19.17;7.00;;;4.40;99.90;;;;;;5139038;27;20193;-68
2021/11/26 02:18:10;;;;;;;15.47;6.50;;;4.40;99.90;;;;;;5146652;27;20221;-68
2021/11/26 02:20:41;;;;;;;20.50;6.83;;;4.40;99.90;;;;;;5143095;27;20202;-68
2021/11/26 02:23:10;;;;;;;25.53;7.00;;;4.40;99.90;;;;;;5142087;27;20558;-69
2021/11/26 02:25:39;;;;;;;20.63;6.60;;;4.40;99.90;;;;;;5140825;27;20781;-68
2021/11/26 02:28:09;;;;;;;20.80;6.90;;;4.40;99.90;;;;;;5141024;27;20217;-68
2021/11/26 02:30:39;;;;;;;21.63;6.83;;;4.40;99.90;;;;;;5134371;27;20193;-68
2021/11/26 02:33:09;;;;;;;23.13;6.63;;;4.40;99.90;;;;;;5122718;27;20205;-68
2021/11/26 02:35:40;;;;;;;14.97;6.37;;;4.40;99.90;;;;;;5137984;27;20226;-68
2021/11/26 02:38:11;;;;;;;23.33;6.50;;;4.40;99.90;;;;;;5131405;27;20698;-68
2021/11/26 02:40:42;;;;;;;19.17;6.50;;;4.40;99.90;;;;;;5139046;27;20217;-68
2021/11/26 02:43:11;;;;;;;22.50;6.77;;;4.40;99.90;;;;;;5141415;27;20282;-68
2021/11/26 02:45:41;;;;;;;24.30;7.03;;;4.40;99.90;;;;;;5141111;27;20314;-68
2021/11/26 02:48:10;;;;;;;19.77;6.30;;;4.40;99.90;;;;;;5138534;27;20243;-68
2021/11/26 02:50:42;;;;;;;19.77;6.50;;;4.40;99.90;;;;;;5135132;27;20228;-68
2021/11/26 02:53:11;;;;;;;14.80;6.47;;;4.40;99.90;;;;;;5137230;27;20966;-68
2021/11/26 02:55:40;;;;;;;18.17;6.57;;;4.40;99.90;;;;;;5140562;27;20536;-68
2021/11/26 02:58:10;;;;;;;21.50;7.07;;;4.40;99.90;;;;;;5148487;27;20213;-68
2021/11/26 03:00:40;;;;;;;33.40;7.20;;;4.40;99.90;;;;;;5137948;27;20272;-68
2021/11/26 03:03:09;;;;;;;16.60;6.63;;;4.40;99.90;;;;;;5117422;27;20625;-68
2021/11/26 03:05:39;;;;;;;24.53;7.37;;;4.50;99.90;;;;;;5139115;27;20205;-68
2021/11/26 03:08:09;;;;;;;21.50;7.00;;;4.50;99.90;;;;;;5139363;27;20197;-68
2021/11/26 03:10:38;;;;;;;29.40;7.17;;;4.50;99.90;;;;;;5138897;27;20264;-68
2021/11/26 03:13:09;;;;;;;22.93;6.90;;;4.50;99.90;;;;;;5141610;27;20613;-68
2021/11/26 03:15:40;;;;;;;22.53;6.67;;;4.50;99.90;;;;;;5139996;27;20193;-68
2021/11/26 03:18:11;;;;;;;18.43;6.13;;;4.50;99.90;;;;;;5120852;27;20266;-68
2021/11/26 03:20:41;;;;;;;16.23;6.20;;;4.50;99.90;;;;;;5139912;27;20186;-68
2021/11/26 03:23:10;;;;;;;22.10;6.43;;;4.50;99.90;;;;;;5134549;27;20253;-69
2021/11/26 03:25:41;;;;;;;17.07;6.07;;;4.60;99.90;;;;;;5135501;27;20276;-68
2021/11/26 03:28:10;;;;;;;22.47;6.40;;;4.50;99.90;;;;;;5136432;27;20195;-68
2021/11/26 03:30:39;;;;;;;15.13;5.73;;;4.50;99.90;;;;;;5139241;27;20203;-68
2021/11/26 03:33:08;;;;;;;22.30;6.80;;;4.50;99.90;;;;;;5140355;27;20747;-68
2021/11/26 03:35:37;;;;;;;19.87;6.60;;;4.50;99.90;;;;;;5141498;27;20272;-68
2021/11/26 03:38:07;;;;;;;12.30;5.47;;;4.50;99.90;;;;;;5150252;27;20659;-68
2021/11/26 03:40:35;;;;;;;19.60;6.23;;;4.40;99.90;;;;;;5133269;27;20182;-68
2021/11/26 03:43:05;;;;;;;20.77;5.97;;;4.40;99.90;;;;;;5131899;27;20225;-68
2021/11/26 03:45:34;;;;;;;21.03;6.43;;;4.40;99.90;;;;;;5120307;27;20283;-70
2021/11/26 03:48:03;;;;;;;21.53;6.17;;;4.40;99.90;;;;;;5139597;27;20202;-68
2021/11/26 03:50:31;;;;;;;24.10;5.87;;;4.40;99.90;;;;;;5140807;27;20202;-68
2021/11/26 03:53:00;;;;;;;21.07;6.20;;;4.40;99.90;;;;;;5135139;27;20225;-68
2021/11/26 03:55:30;;;;;;;14.03;5.77;;;4.40;99.90;;;;;;5135147;27;20656;-68
2021/11/26 03:57:59;;;;;;;25.30;5.47;;;4.40;99.90;;;;;;5141323;27;20246;-68
2021/11/26 04:00:28;;;;;;;17.80;6.33;;;4.40;99.90;;;;;;5135460;27;20216;-68
2021/11/26 04:02:57;;;;;;;14.23;5.60;;;4.40;99.90;;;;;;5141422;27;20277;-68
2021/11/26 04:05:25;;;;;;;21.67;5.93;;;4.30;99.90;;;;;;5152067;27;20214;-67
2021/11/26 04:07:58;;;;;;;25.77;5.50;;;4.40;99.90;;;;;;5135836;27;20200;-68
2021/11/26 04:10:31;;;;;;;20.00;5.10;;;4.40;99.90;;;;;;5118943;27;20253;-68
2021/11/26 04:13:00;;;;;;;20.67;5.47;;;4.30;99.90;;;;;;5117930;27;20210;-68
2021/11/26 04:15:29;;;;;;;19.77;5.13;;;4.30;99.90;;;;;;5139567;27;20194;-68
2021/11/26 04:18:00;;;;;;;14.53;5.20;;;4.30;99.90;;;;;;5148256;27;20182;-68
2021/11/26 04:20:30;;;;;;;19.00;5.00;;;4.40;99.90;;;;;;5137985;27;20224;-68
2021/11/26 04:22:59;;;;;;;17.60;4.70;;;4.30;99.90;;;;;;5137445;27;20605;-67
2021/11/26 04:25:28;;;;;;;21.90;5.10;;;4.30;99.90;;;;;;5148659;27;20190;-68
2021/11/26 04:27:58;;;;;;;16.37;4.67;;;4.40;99.90;;;;;;5137463;27;20250;-67
2021/11/26 04:30:29;;;;;;;16.57;4.77;;;4.40;99.90;;;;;;5122254;27;20197;-67
2021/11/26 04:32:58;;;;;;;19.90;4.60;;;4.40;99.90;;;;;;5120786;27;20237;-68
2021/11/26 04:35:27;;;;;;;14.63;4.83;;;4.40;99.90;;;;;;5143676;27;20197;-67
2021/11/26 04:37:56;;;;;;;24.93;4.73;;;4.40;99.90;;;;;;5142126;27;20272;-67
2021/11/26 04:40:24;;;;;;;19.03;4.97;;;4.30;99.90;;;;;;5137814;27;20658;-67
2021/11/26 04:42:53;;;;;;;14.70;4.20;;;4.30;99.90;;;;;;5137811;27;20683;-68
2021/11/26 04:45:22;;;;;;;17.13;4.67;;;4.30;99.90;;;;;;5143616;27;20297;-67
2021/11/26 04:47:51;;;;;;;10.97;4.43;;;4.30;99.90;;;;;;5157399;27;20193;-67
2021/11/26 04:50:19;;;;;;;12.57;4.33;;;4.20;99.90;;;;;;5121618;27;20215;-68
2021/11/26 04:52:48;;;;;;;15.50;4.97;;;4.20;99.90;;;;;;5143432;27;20224;-68
2021/11/26 04:55:17;;;;;;;12.20;4.27;;;4.20;99.90;;;;;;5123910;27;20239;-68
2021/11/26 04:57:46;;;;;;;18.00;4.57;;;4.20;99.90;;;;;;5136782;27;20284;-67
2021/11/26 05:00:16;;;;;;;14.63;5.00;;;4.20;99.90;;;;;;5140415;27;20261;-68
2021/11/26 05:02:47;;;;;;;22.10;5.50;;;4.20;99.90;;;;;;5119596;27;20280;-68
2021/11/26 05:05:18;;;;;;;20.00;4.40;;;4.10;99.90;;;;;;5145939;27;20218;-67
2021/11/26 05:07:47;;;;;;;14.07;4.40;;;4.20;99.90;;;;;;5137727;27;20277;-67
2021/11/26 05:10:17;;;;;;;11.37;4.50;;;4.20;99.90;;;;;;5137860;27;20194;-68
2021/11/26 05:12:48;;;;;;;20.33;5.10;;;4.10;99.90;;;;;;5140082;27;20205;-67
2021/11/26 05:15:24;;;;;;;20.47;4.90;;;4.10;99.90;;;;;;5142716;27;20247;-68
2021/11/26 05:17:55;;;;;;;15.03;4.97;;;4.10;99.90;;;;;;5137468;27;20236;-67
2021/11/26 05:20:24;;;;;;;12.23;4.07;;;4.10;99.90;;;;;;5138805;27;20225;-68
2021/11/26 05:22:53;;;;;;;20.73;4.87;;;4.10;99.90;;;;;;5120632;27;20190;-67
2021/11/26 05:25:22;;;;;;;22.63;5.47;;;4.10;99.90;;;;;;5146551;27;20219;-67
2021/11/26 05:27:51;;;;;;;16.10;4.83;;;4.00;99.90;;;;;;5144329;27;20802;-68
2021/11/26 05:30:20;;;;;;;14.27;4.60;;;4.00;99.90;;;;;;5140141;27;20181;-67
2021/11/26 05:32:50;;;;;;;17.27;5.17;;;3.90;99.90;;;;;;5149354;27;20193;-68
2021/11/26 05:35:20;;;;;;;16.00;4.97;;;3.90;99.90;;;;;;5146263;27;20301;-68
2021/11/26 05:37:49;;;;;;;13.20;4.50;;;3.90;99.90;;;;;;5139966;27;20191;-69
2021/11/26 05:40:19;;;;;;;12.90;5.07;;;3.80;99.90;;;;;;5146414;27;20255;-68
2021/11/26 05:42:49;;;;;;;18.37;5.37;;;3.80;99.90;;;;;;5124545;27;20284;-67
2021/11/26 05:45:19;;;;;;;17.47;4.57;;;3.80;99.90;;;;;;5118979;27;20650;-67
2021/11/26 05:47:48;;;;;;;16.53;5.40;;;3.80;99.90;;;;;;5136199;27;20764;-68
2021/11/26 05:50:21;;;;;;;14.77;5.60;;;3.70;99.90;;;;;;5138033;27;20201;-68
2021/11/26 05:52:50;;;;;;;13.57;4.73;;;3.70;99.90;;;;;;5144192;27;20201;-67
2021/11/26 05:55:23;;;;;;;13.10;4.50;;;3.70;99.90;;;;;;5135902;27;20222;-68
2021/11/26 05:57:52;;;;;;;14.73;4.50;;;3.60;99.90;;;;;;5153277;27;20241;-67
2021/11/26 06:00:23;;;;;;;18.47;4.67;;;3.60;99.90;;;;;;5138119;27;20182;-68
2021/11/26 06:03:09;;;;;;;18.03;4.93;;;3.60;99.90;;;;;;5143045;27;20205;-68
2021/11/26 06:06:17;;;;;;;12.63;4.07;;;3.60;99.90;;;;;;5134623;27;20725;-67
2021/11/26 06:08:46;;;;;;;8.00;4.53;;;3.60;99.90;;;;;;5125857;27;20276;-68
2021/11/26 06:11:14;;;;;;;11.83;4.50;;;3.50;99.90;;;;;;5102057;27;20285;-67
2021/11/26 06:13:43;;;;;;;17.80;4.97;;;3.60;99.90;;;;;;5125436;27;20189;-68
2021/11/26 06:16:11;;;;;;;9.07;4.07;;;3.60;99.90;;;;;;5143185;27;20197;-67
2021/11/26 06:18:40;;;;;;;20.00;4.67;;;3.60;99.90;;;;;;5147117;27;20197;-68
2021/11/26 06:21:08;;;;;;;13.47;4.20;;;3.60;99.90;;;;;;5143409;27;20197;-68
2021/11/26 06:23:38;;;;;;;10.70;3.97;;;3.60;99.90;;;;;;5142371;27;20221;-68
2021/11/26 06:26:09;;;;;;;15.27;4.67;;;3.50;99.90;;;;;;5140184;27;20260;-67
2021/11/26 06:28:38;;;;;;;12.20;4.20;;;3.50;99.90;;;;;;5155229;27;20193;-68
2021/11/26 06:31:06;;;;;;;14.20;4.50;;;3.50;99.90;;;;;;5139049;27;20202;-67
2021/11/26 06:33:35;;;;;;;16.57;4.17;;;3.50;99.90;;;;;;5144242;27;20313;-67
2021/11/26 06:36:03;;;;;;;11.37;4.20;;;3.50;99.90;;;;;;5138746;27;20604;-68
2021/11/26 06:38:32;;;;;;;12.63;4.03;;;3.50;99.90;;;;;;5136010;27;20185;-67
2021/11/26 06:41:01;;;;;;;8.53;3.80;;;3.50;99.90;;;;;;5138982;27;20254;-67
2021/11/26 06:43:30;;;;;;;9.63;3.93;;;3.50;99.90;;;;;;5158342;27;20803;-66
2021/11/26 06:45:58;;;;;;;13.83;4.23;;;3.50;99.90;;;;;;5124676;27;20189;-69
2021/11/26 06:48:27;;;;;;;14.50;4.37;;;3.50;99.90;;;;;;5151585;27;20223;-68
2021/11/26 06:50:55;;;;;;;16.30;4.50;;;3.40;99.90;;;;;;5145113;27;20254;-68
2021/11/26 06:53:24;;;;;;;13.53;4.13;;;3.40;99.90;;;;;;5147443;27;20193;-68
2021/11/26 06:55:52;;;;;;;12.90;4.10;;;3.30;99.90;;;;;;5143023;27;20245;-68
2021/11/26 06:58:22;;;;;;;14.70;4.03;;;3.40;99.90;;;;;;5145590;27;20197;-68
2021/11/26 07:00:50;;;;;;;16.37;4.03;;;3.40;99.90;;;;;;5137407;27;20279;-68
2021/11/26 07:03:19;;;;;;;11.53;3.87;;;3.30;99.90;;;;;;5137491;27;20197;-69
2021/11/26 07:05:48;;;;;;;11.60;3.90;;;3.30;99.90;;;;;;5157746;27;20193;-68
2021/11/26 07:08:18;;;;;;;8.90;3.80;;;3.30;99.90;;;;;;5126184;27;20202;-68
2021/11/26 07:10:47;;;;;;;17.60;3.80;;;3.30;99.90;;;;;;5138714;27;20232;-68
2021/11/26 07:13:15;;;;;;;12.47;3.97;;;3.30;99.90;;;;;;5159361;27;20250;-68
2021/11/26 07:15:46;;;;;;;10.73;4.03;;;3.30;99.90;;;;;;5148252;27;20759;-68
2021/11/26 07:18:15;;;;;;;11.27;4.13;;;3.40;99.90;;;;;;5113029;27;20630;-67
2021/11/26 07:20:43;;;;;;;11.90;4.20;;;3.30;99.90;;;;;;5136781;27;20592;-68
2021/11/26 07:23:12;;;;;;;9.10;3.60;;;3.30;99.90;;;;;;5140532;27;20181;-68
2021/11/26 07:25:41;;;;;;;11.40;4.00;;;3.40;99.90;;;;;;5132979;27;20700;-68
2021/11/26 07:28:09;;;;;;;8.10;3.70;;;3.40;99.90;;;;;;5144458;27;20242;-68
2021/11/26 07:30:39;;;;;;;17.03;4.03;;;3.40;99.90;;;;;;5137013;27;20232;-68
2021/11/26 07:33:09;;;;;;;19.30;4.60;;;3.40;99.90;;;;;;5143749;27;20189;-68
2021/11/26 07:35:40;;;;;;;6.20;3.60;;;3.30;99.90;;;;;;5139031;27;20210;-67
2021/11/26 07:38:09;;;;;;;21.37;3.83;;;3.30;99.90;;;;;;5137613;27;20570;-68
2021/11/26 07:40:37;;;;;;;17.10;4.07;;;3.30;99.90;;;;;;5140331;27;20222;-67
2021/11/26 07:43:05;;;;;;;10.60;3.90;;;3.40;99.90;;;;;;5138728;27;20193;-68
2021/11/26 07:45:35;;;;;;;14.00;3.80;;;3.40;99.90;;;;;;5145462;27;20270;-67
2021/11/26 07:48:05;;;;;;;12.03;4.00;;;3.40;99.90;;;;;;5135124;27;20663;-68
2021/11/26 07:50:35;;;;;;;9.00;3.87;;;3.40;99.90;;;;;;5125425;27;20683;-67
2021/11/26 07:53:04;;;;;;;11.57;3.97;;;3.40;99.90;;;;;;5146534;27;20222;-67
2021/11/26 07:55:32;;;;;;;15.40;3.87;;;3.40;99.90;;;;;;5152162;27;20293;-67
2021/11/26 07:58:02;;;;;;;20.73;4.43;;;3.50;99.90;;;;;;5150434;27;20233;-67
2021/11/26 08:00:30;;;;;;;16.87;3.93;;;3.50;99.90;;;;;;5145087;27;20200;-67
2021/11/26 08:03:02;;;;;;;10.10;3.97;;;3.40;99.90;;;;;;5155583;27;20215;-67
2021/11/26 08:05:31;;;;;;;12.23;3.83;;;3.50;99.90;;;;;;5143258;27;20185;-68
2021/11/26 08:08:01;;;;;;;9.37;3.90;;;3.50;99.90;;;;;;5151277;27;20337;-67
2021/11/26 08:10:29;;;;;;;13.03;4.00;;;3.50;99.90;;;;;;5144011;27;20251;-67
2021/11/26 08:12:58;;;;;;;11.30;4.30;;;3.60;99.90;;;;;;5152627;27;20276;-67
2021/11/26 08:15:26;;;;;;;22.87;5.30;;;3.60;99.90;;;;;;5152809;27;20219;-68
2021/11/26 08:17:55;;;;;;;19.47;4.80;;;3.60;99.90;;;;;;5149522;27;20266;-67
2021/11/26 08:20:23;;;;;;;19.00;5.33;;;3.70;99.90;;;;;;5154977;27;20197;-68
2021/11/26 08:22:52;;;;;;;18.43;4.87;;;3.80;99.90;;;;;;5143297;27;20209;-68
2021/11/26 08:25:24;;;;;;;23.03;5.27;;;3.90;99.90;;;;;;5153128;27;20189;-68
2021/11/26 08:27:55;;;;;;;15.77;5.60;;;3.90;99.90;;;;;;5136313;27;20200;-67
2021/11/26 08:30:24;;;;;;;24.83;5.77;;;3.90;99.90;;;;;;5152937;27;20201;-67
2021/11/26 08:32:53;;;;;;;18.20;6.50;;;3.90;99.90;;;;;;5152415;27;20209;-68
2021/11/26 08:35:24;;;;;;;64.13;28.27;;;3.90;99.90;;;;;;5132790;27;20245;-67
2021/11/26 08:37:53;;;;;;;16.73;6.13;;;3.90;99.90;;;;;;5156841;27;21032;-67
2021/11/26 08:40:23;;;;;;;52.70;24.00;;;4.00;99.90;;;;;;5144661;27;20267;-67
2021/11/26 08:42:51;;;;;;;14.83;5.67;;;4.10;99.90;;;;;;5130182;27;20533;-67
2021/11/26 08:45:20;;;;;;;20.57;7.00;;;4.10;99.90;;;;;;5153073;27;20230;-68
2021/11/26 08:47:48;;;;;;;17.20;9.07;;;4.20;99.90;;;;;;5157766;27;20239;-67
2021/11/26 08:50:19;;;;;;;13.77;5.30;;;4.10;99.90;;;;;;5148623;27;20190;-67
2021/11/26 08:52:47;;;;;;;12.70;5.30;;;4.10;99.90;;;;;;5149371;27;20208;-66
2021/11/26 08:55:17;;;;;;;18.87;5.33;;;4.20;99.90;;;;;;5150117;27;20266;-67
2021/11/26 08:57:53;;;;;;;15.10;4.57;;;4.10;99.90;;;;;;5149776;27;20238;-67
2021/11/26 09:00:24;;;;;;;12.10;5.70;;;4.20;99.90;;;;;;5153859;27;20682;-67
2021/11/26 09:02:56;;;;;;;12.30;4.33;;;4.10;99.90;;;;;;5148933;27;20201;-67
2021/11/26 09:05:24;;;;;;;11.83;4.73;;;4.20;99.90;;;;;;5131053;27;20540;-66
2021/11/26 09:07:59;;;;;;;17.10;5.10;;;4.30;99.90;;;;;;5126574;27;20193;-67
2021/11/26 09:10:28;;;;;;;13.67;6.20;;;4.30;99.90;;;;;;5146516;27;20186;-67
2021/11/26 09:12:58;;;;;;;11.33;5.07;;;4.40;99.90;;;;;;5145706;27;20712;-66
2021/11/26 09:15:27;;;;;;;9.57;4.30;;;4.40;99.90;;;;;;5158954;27;20920;-67
2021/11/26 09:17:57;;;;;;;13.63;5.27;;;4.50;99.90;;;;;;5146929;27;20197;-67
2021/11/26 09:20:26;;;;;;;14.03;4.77;;;4.50;99.90;;;;;;5158241;27;20241;-67
2021/11/26 09:22:54;;;;;;;12.80;4.27;;;4.50;99.90;;;;;;5117911;27;20678;-66
2021/11/26 09:25:23;;;;;;;10.03;4.07;;;4.50;99.90;;;;;;5154232;27;20720;-67
2021/11/26 09:27:52;;;;;;;10.70;4.63;;;4.50;99.90;;;;;;5156751;27;20194;-66
2021/11/26 09:30:22;;;;;;;14.23;4.63;;;4.40;99.90;;;;;;5145786;27;20272;-68
2021/11/26 09:32:51;;;;;;;17.03;4.50;;;4.40;99.90;;;;;;5138324;27;20216;-67
2021/11/26 09:35:20;;;;;;;17.33;5.33;;;4.40;99.90;;;;;;5148274;27;20220;-68
2021/11/26 09:37:49;;;;;;;11.77;4.37;;;4.40;99.90;;;;;;5147594;27;20253;-67
2021/11/26 09:40:19;;;;;;;8.97;4.53;;;4.40;99.90;;;;;;5137048;27;20204;-67
2021/11/26 09:42:48;;;;;;;14.53;5.10;;;4.40;99.90;;;;;;5141674;27;20721;-67
2021/11/26 09:45:21;;;;;;;13.47;4.43;;;4.50;99.90;;;;;;5136719;27;20224;-67
2021/11/26 09:47:51;;;;;;;12.13;4.60;;;4.50;99.90;;;;;;5145614;27;20251;-66
2021/11/26 09:50:21;;;;;;;17.60;4.47;;;4.50;99.90;;;;;;5149525;27;20271;-67
2021/11/26 09:52:49;;;;;;;12.57;5.07;;;4.50;99.90;;;;;;5147558;27;20213;-67
2021/11/26 09:55:19;;;;;;;8.83;4.57;;;4.50;99.90;;;;;;5112450;27;20185;-65
2021/11/26 09:57:48;;;;;;;17.10;5.17;;;4.50;99.90;;;;;;5143702;27;20213;-66
2021/11/26 10:00:19;;;;;;;10.57;4.53;;;4.50;99.90;;;;;;5147496;27;20263;-66
2021/11/26 10:02:53;;;;;;;10.17;4.50;;;4.50;99.90;;;;;;5122634;27;20242;-67
2021/11/26 10:05:24;;;;;;;8.97;4.57;;;4.50;99.90;;;;;;5138010;27;20193;-66
2021/11/26 10:07:55;;;;;;;16.07;6.03;;;4.50;99.90;;;;;;5150108;27;20201;-67
2021/11/26 10:10:26;;;;;;;14.73;5.67;;;4.50;99.90;;;;;;5143776;27;20197;-67
2021/11/26 10:13:00;;;;;;;39.97;18.87;;;4.50;99.90;;;;;;5151978;27;20190;-67
2021/11/26 10:15:36;;;;;;;9.50;5.20;;;4.50;99.90;;;;;;5145543;27;20193;-65
2021/11/26 10:18:09;;;;;;;12.97;4.57;;;4.50;99.90;;;;;;5119947;27;20275;-68
2021/11/26 10:20:38;;;;;;;12.03;4.90;;;4.50;99.90;;;;;;5140761;27;20281;-68
2021/11/26 10:23:18;;;;;;;11.57;4.17;;;4.50;99.90;;;;;;5152342;27;20819;-68
2021/11/26 10:25:49;;;;;;;12.97;4.33;;;4.50;99.90;;;;;;5131185;27;20204;-67
2021/11/26 10:28:18;;;;;;;11.97;4.30;;;4.50;99.90;;;;;;5146304;27;20220;-68
2021/11/26 10:30:49;;;;;;;6.80;4.40;;;4.50;99.90;;;;;;5152469;27;20723;-69
2021/11/26 10:33:23;;;;;;;10.77;5.27;;;4.50;99.90;;;;;;5146837;27;20672;-67
2021/11/26 10:35:55;;;;;;;15.20;7.53;;;4.40;99.90;;;;;;5146376;27;20698;-69
2021/11/26 10:38:27;;;;;;;15.17;7.10;;;4.40;99.90;;;;;;5123857;27;20189;-69
2021/11/26 10:40:57;;;;;;;9.37;4.30;;;4.50;99.90;;;;;;5126716;27;20190;-68
2021/11/26 10:43:33;;;;;;;13.87;4.73;;;4.50;99.90;;;;;;5149363;27;20193;-69
2021/11/26 10:46:28;;;;;;;10.90;4.83;;;4.50;99.90;;;;;;5144209;27;20233;-69
2021/11/26 11:00:09;;;;;;;9.70;4.40;;;4.50;99.90;;;;;;5146329;27;20288;-68
2021/11/26 11:02:40;;;;;;;10.93;4.33;;;4.60;99.90;;;;;;5142063;27;20439;-68
2021/11/26 11:05:12;;;;;;;11.27;4.00;;;4.60;99.90;;;;;;5121904;27;20197;-65
2021/11/26 11:07:42;;;;;;;11.53;4.20;;;4.50;99.90;;;;;;5154106;27;20289;-68
2021/11/26 11:10:15;;;;;;;12.47;4.40;;;4.50;99.90;;;;;;5142408;27;20193;-67
2021/11/26 11:12:43;;;;;;;9.50;4.30;;;4.60;99.90;;;;;;5144328;27;20655;-69
2021/11/26 11:15:13;;;;;;;5.40;4.27;;;4.60;99.90;;;;;;5141823;27;20312;-69
2021/11/26 11:17:41;;;;;;;12.03;4.30;;;4.60;99.90;;;;;;5135155;27;20644;-68
2021/11/26 11:20:15;;;;;;;7.13;4.10;;;4.60;99.90;;;;;;5136308;27;20225;-67
2021/11/26 11:22:46;;;;;;;13.53;4.70;;;4.60;99.90;;;;;;5144406;27;20276;-70
2021/11/26 11:25:17;;;;;;;12.00;4.70;;;4.60;99.90;;;;;;5120283;27;20278;-69
2021/11/26 11:27:45;;;;;;;8.37;4.00;;;4.60;99.90;;;;;;5152311;27;20196;-69
2021/11/26 11:30:14;;;;;;;8.87;4.63;;;4.60;99.90;;;;;;5153604;27;20204;-69
2021/11/26 11:32:42;;;;;;;10.27;4.67;;;4.60;99.90;;;;;;5144091;27;20193;-68
2021/11/26 11:35:13;;;;;;;19.77;6.20;;;4.60;99.90;;;;;;5152861;27;20186;-69
2021/11/26 11:37:43;;;;;;;8.07;4.30;;;4.60;99.90;;;;;;5149423;27;20212;-68
2021/11/26 11:40:12;;;;;;;11.27;4.60;;;4.50;99.90;;;;;;5150710;27;20193;-68
2021/11/26 11:42:43;;;;;;;9.77;4.00;;;4.60;99.90;;;;;;5150648;27;20213;-67
2021/11/26 11:45:14;;;;;;;12.20;4.40;;;4.50;99.90;;;;;;5133589;27;20283;-68
2021/11/26 11:47:44;;;;;;;8.20;4.53;;;4.50;99.90;;;;;;5156749;27;20193;-68
2021/11/26 11:50:20;;;;;;;14.30;4.43;;;4.60;99.90;;;;;;5162017;27;20189;-69
2021/11/26 11:52:51;;;;;;;12.60;5.03;;;4.50;99.90;;;;;;5149818;27;20202;-69
2021/11/26 11:55:29;;;;;;;10.63;4.80;;;4.50;99.90;;;;;;5150570;27;20596;-68
2021/11/26 11:58:11;;;;;;;16.80;4.93;;;4.50;99.90;;;;;;5150674;27;20217;-69
2021/11/26 12:00:40;;;;;;;16.30;4.90;;;4.50;99.90;;;;;;5152164;27;20202;-67
2021/11/26 12:03:12;;;;;;;9.30;5.30;;;4.60;99.90;;;;;;5145162;27;20209;-67
2021/11/26 12:05:42;;;;;;;13.67;6.23;;;4.50;99.90;;;;;;5154213;27;20288;-68
2021/11/26 12:08:13;;;;;;;10.83;5.27;;;4.50;99.90;;;;;;5149175;27;20190;-66
2021/11/26 12:10:45;;;;;;;10.80;4.97;;;4.50;99.90;;;;;;5147837;27;20198;-67
2021/11/26 12:13:27;;;;;;;13.70;5.77;;;4.50;99.90;;;;;;5133788;27;20678;-68
2021/11/26 12:16:08;;;;;;;7.93;3.87;;;4.50;99.90;;;;;;5148633;27;20798;-66
2021/11/26 12:18:46;;;;;;;14.07;5.80;;;4.50;99.90;;;;;;5148744;27;20743;-68
2021/11/26 12:21:25;;;;;;;11.63;5.13;;;4.60;99.90;;;;;;5150749;27;20201;-68
2021/11/26 12:24:08;;;;;;;9.90;5.70;;;4.60;99.90;;;;;;5159164;27;20231;-67
2021/11/26 12:26:51;;;;;;;12.77;6.27;;;4.60;99.90;;;;;;5136698;27;20189;-69
2021/11/26 12:29:22;;;;;;;25.43;11.67;;;4.70;99.90;;;;;;5125787;27;20206;-66
2021/11/26 12:31:51;;;;;;;13.57;6.47;;;4.70;99.90;;;;;;5132390;27;20675;-67
2021/11/26 12:34:21;;;;;;;17.30;7.00;;;4.70;99.90;;;;;;5151433;27;20204;-67
2021/11/26 12:36:54;;;;;;;19.50;11.67;;;4.70;99.90;;;;;;5146320;27;20663;-69
2021/11/26 12:39:33;;;;;;;20.70;9.23;;;4.80;99.90;;;;;;5149354;27;20211;-66
2021/11/26 12:42:03;;;;;;;27.93;13.20;;;4.80;99.90;;;;;;5146285;27;20742;-67
2021/11/26 12:44:33;;;;;;;27.77;13.93;;;4.80;99.90;;;;;;5143501;27;20795;-66
2021/11/26 12:47:06;;;;;;;13.03;7.83;;;4.90;99.90;;;;;;5135407;27;20209;-68
2021/11/26 12:52:24;;;;;;;8.03;5.17;;;4.90;99.90;;;;;;5140871;27;20190;-68
2021/11/26 12:54:54;;;;;;;10.20;6.27;;;4.90;99.90;;;;;;5143718;27;20186;-67
2021/11/26 12:57:27;;;;;;;11.50;5.93;;;4.80;99.90;;;;;;5121834;27;20201;-66
2021/11/26 12:59:57;;;;;;;13.73;7.40;;;4.80;99.90;;;;;;5132785;27;20605;-69
2021/11/26 13:02:31;;;;;;;10.90;6.40;;;4.80;99.90;;;;;;5147571;27;20208;-68
2021/11/26 13:05:01;;;;;;;16.10;6.53;;;4.90;99.90;;;;;;5140701;27;20197;-68
2021/11/26 13:07:36;;;;;;;9.60;5.27;;;4.90;99.90;;;;;;5144630;27;20773;-68
2021/11/26 13:10:10;;;;;;;11.40;6.50;;;4.90;99.90;;;;;;5144160;27;20240;-69
2021/11/26 13:12:41;;;;;;;11.27;5.40;;;5.00;99.90;;;;;;5143749;27;20200;-69
2021/11/26 13:15:11;;;;;;;12.53;6.00;;;5.10;99.90;;;;;;5138914;27;20280;-69
2021/11/26 13:17:45;;;;;;;8.37;5.70;;;5.10;99.90;;;;;;5136382;27;20307;-68